createdAt,value
2019-01-31T00:04:27.541Z,82.94
2019-01-31T00:09:42.363Z,83.26
2019-01-31T00:12:29.052Z,83.26
2019-01-31T00:15:15.496Z,83.67
2019-01-31T00:17:43.199Z,83.67
2019-01-31T00:20:29.663Z,83.49
2019-01-31T00:23:16.151Z,83.29
2019-01-31T00:25:46.212Z,83.29
2019-01-31T00:28:34.978Z,83.62
2019-01-31T00:31:02.730Z,83.62
2019-01-31T00:33:49.466Z,83.32
2019-01-31T00:36:18.847Z,83.32
2019-01-31T00:39:05.595Z,83.46
2019-01-31T00:41:33.259Z,83.46
2019-01-31T00:44:19.703Z,83.81
2019-01-31T00:46:47.351Z,83.81
2019-01-31T00:49:35.318Z,83.28
2019-01-31T00:52:21.803Z,83.28
2019-01-31T00:55:08.510Z,83.34
2019-01-31T00:57:36.338Z,83.34
2019-01-31T01:02:36.961Z,83.60
2019-01-31T01:05:23.401Z,83.62
2019-01-31T01:07:51.212Z,83.66
2019-01-31T01:10:19.280Z,83.61
2019-01-31T01:13:05.792Z,83.72
2019-01-31T01:15:33.489Z,83.72
2019-01-31T01:20:47.827Z,83.54
2019-01-31T01:26:22.275Z,83.23
2019-01-31T01:28:50.371Z,83.23
2019-01-31T01:31:36.813Z,83.45
2019-01-31T01:34:23.188Z,83.94
2019-01-31T01:39:56.150Z,83.72
2019-01-31T01:42:32.091Z,84.16
2019-01-31T01:44:59.968Z,84.16
2019-01-31T01:47:28.550Z,83.71
2019-01-31T01:50:15.278Z,83.29
2019-01-31T01:52:43.008Z,83.29
2019-01-31T01:55:10.714Z,83.60
2019-01-31T01:57:38.976Z,83.58
2019-01-31T02:00:25.393Z,83.96
2019-01-31T02:02:53.033Z,83.96
2019-01-31T02:05:20.827Z,83.65
2019-01-31T02:08:07.440Z,83.61
2019-01-31T02:10:35.146Z,83.61
2019-01-31T02:13:02.848Z,84.00
2019-01-31T02:15:31.093Z,84.13
2019-01-31T02:18:17.511Z,84.01
2019-01-31T02:20:45.186Z,84.01
2019-01-31T02:23:13.329Z,84.49
2019-01-31T02:26:00.050Z,84.39
2019-01-31T02:28:46.507Z,84.68
2019-01-31T02:31:14.193Z,84.65
2019-01-31T02:34:01.142Z,84.54
2019-01-31T02:36:30.532Z,84.54
2019-01-31T02:38:58.210Z,85.08
2019-01-31T02:41:44.621Z,85.13
2019-01-31T02:44:12.447Z,85.27
2019-01-31T02:46:59.213Z,85.45
2019-01-31T02:49:45.722Z,85.13
2019-01-31T02:52:32.412Z,84.73
2019-01-31T02:55:18.904Z,85.42
2019-01-31T02:57:46.646Z,85.42
2019-01-31T03:00:33.161Z,85.63
2019-01-31T03:03:00.906Z,85.52
2019-01-31T03:05:48.828Z,85.60
2019-01-31T03:08:35.376Z,86.08
2019-01-31T03:11:21.820Z,86.08
2019-01-31T03:14:10.298Z,86.09
2019-01-31T03:16:37.754Z,86.09
2019-01-31T03:19:24.183Z,85.90
2019-01-31T03:22:10.713Z,85.65
2019-01-31T03:24:57.201Z,85.76
2019-01-31T03:27:43.776Z,85.76
2019-01-31T03:30:11.523Z,86.03
2019-01-31T03:33:09.970Z,85.82
2019-01-31T03:35:46.108Z,85.59
2019-01-31T03:38:14.247Z,86.03
2019-01-31T03:41:00.735Z,85.72
2019-01-31T03:43:47.225Z,86.24
2019-01-31T03:46:33.954Z,86.23
2019-01-31T03:49:01.815Z,86.23
2019-01-31T03:51:29.580Z,86.24
2019-01-31T03:54:16.111Z,86.46
2019-01-31T03:56:43.858Z,86.46
2019-01-31T03:59:13.182Z,86.08
2019-01-31T04:07:11.558Z,85.88
2019-01-31T04:09:58.032Z,85.86
2019-01-31T04:12:44.489Z,86.25
2019-01-31T04:15:26.334Z,86.25
2019-01-31T04:17:41.598Z,86.40
2019-01-31T04:20:28.113Z,86.20
2019-01-31T04:23:14.834Z,86.24
2019-01-31T04:26:01.347Z,85.94
2019-01-31T04:28:48.027Z,85.63
2019-01-31T04:31:15.727Z,85.63
2019-01-31T04:33:43.487Z,85.94
2019-01-31T04:36:11.251Z,85.94
2019-01-31T04:38:57.734Z,85.44
2019-01-31T04:41:44.250Z,86.03
2019-01-31T04:44:30.662Z,86.03
2019-01-31T04:47:17.547Z,85.83
2019-01-31T04:50:03.985Z,85.94
2019-01-31T04:52:31.729Z,85.94
2019-01-31T04:55:18.174Z,85.81
2019-01-31T04:57:45.905Z,85.81
2019-01-31T05:00:32.407Z,85.93
2019-01-31T05:03:00.060Z,85.93
2019-01-31T05:05:27.825Z,85.85
2019-01-31T05:08:14.295Z,85.74
2019-01-31T05:10:43.432Z,85.59
2019-01-31T05:13:30.537Z,85.74
2019-01-31T05:16:03.201Z,85.74
2019-01-31T05:18:48.244Z,85.66
2019-01-31T05:21:34.738Z,85.66
2019-01-31T05:24:21.214Z,85.58
2019-01-31T05:26:48.859Z,85.58
2019-01-31T05:29:35.597Z,85.29
2019-01-31T05:32:03.330Z,85.48
2019-01-31T05:34:31.119Z,85.82
2019-01-31T05:36:58.752Z,85.78
2019-01-31T05:39:45.276Z,85.78
2019-01-31T05:42:13.018Z,85.84
2019-01-31T05:44:40.685Z,85.76
2019-01-31T05:47:27.190Z,85.76
2019-01-31T05:49:54.874Z,85.99
2019-01-31T05:52:41.378Z,86.22
2019-01-31T05:55:09.021Z,86.22
2019-01-31T05:57:55.491Z,86.69
2019-01-31T06:00:41.985Z,87.08
2019-01-31T06:03:28.466Z,87.08
2019-01-31T06:06:15.574Z,87.05
2019-01-31T06:09:24.753Z,87.02
2019-01-31T06:11:50.102Z,86.97
2019-01-31T06:14:36.621Z,86.97
2019-01-31T06:17:04.271Z,86.65
2019-01-31T06:19:32.175Z,86.56
2019-01-31T06:22:18.796Z,86.45
2019-01-31T06:25:06.783Z,86.14
2019-01-31T06:27:34.518Z,86.14
2019-01-31T06:30:20.975Z,86.32
2019-01-31T06:32:48.616Z,86.32
2019-01-31T06:35:16.534Z,86.13
2019-01-31T06:38:03.022Z,86.39
2019-01-31T06:40:49.446Z,86.39
2019-01-31T06:43:35.965Z,85.84
2019-01-31T06:46:22.396Z,85.56
2019-01-31T06:51:42.232Z,85.62
2019-01-31T06:54:09.897Z,85.62
2019-01-31T06:56:37.530Z,85.52
2019-01-31T06:59:25.250Z,85.36
2019-01-31T07:04:58.107Z,85.03
2019-01-31T07:07:44.594Z,85.18
2019-01-31T07:10:31.178Z,85.11
2019-01-31T07:12:59.090Z,85.11
2019-01-31T07:15:45.574Z,84.99
2019-01-31T07:18:13.252Z,84.88
2019-01-31T07:20:59.772Z,84.78
2019-01-31T07:23:27.733Z,84.72
2019-01-31T07:25:55.402Z,84.64
2019-01-31T07:28:23.095Z,84.55
2019-01-31T07:31:05.906Z,84.54
2019-01-31T07:33:40.535Z,84.61
2019-01-31T07:36:08.263Z,84.27
2019-01-31T07:38:54.758Z,84.20
2019-01-31T07:41:22.629Z,84.52
2019-01-31T07:44:21.265Z,84.52
2019-01-31T07:46:57.219Z,84.10
2019-01-31T07:49:43.673Z,84.15
2019-01-31T07:52:11.854Z,84.15
2019-01-31T07:54:58.345Z,84.18
2019-01-31T07:57:26.260Z,84.18
2019-01-31T07:59:54.227Z,83.73
2019-01-31T08:02:41.091Z,83.73
2019-01-31T08:05:08.721Z,83.99
2019-01-31T08:07:55.233Z,83.84
2019-01-31T08:10:22.852Z,83.84
2019-01-31T08:20:47.227Z,83.63
2019-01-31T08:23:27.267Z,83.63
2019-01-31T08:28:18.555Z,83.65
2019-01-31T08:30:46.218Z,83.54
2019-01-31T08:33:17.781Z,83.54
2019-01-31T08:35:45.436Z,83.43
2019-01-31T08:38:13.062Z,83.37
2019-01-31T08:40:59.532Z,82.94
2019-01-31T08:43:46.708Z,83.02
2019-01-31T08:46:34.185Z,83.40
2019-01-31T08:49:01.861Z,83.40
2019-01-31T08:51:29.501Z,83.10
2019-01-31T08:53:57.501Z,83.01
2019-01-31T08:56:25.079Z,83.02
2019-01-31T08:59:04.723Z,83.02
2019-01-31T09:01:41.211Z,82.60
2019-01-31T09:04:08.797Z,82.47
2019-01-31T09:06:36.812Z,82.31
2019-01-31T09:12:15.513Z,81.62
2019-01-31T09:14:40.585Z,81.84
2019-01-31T09:17:08.543Z,81.76
2019-01-31T09:19:36.216Z,81.75
2019-01-31T09:24:50.545Z,81.83
2019-01-31T09:27:18.107Z,81.90
2019-01-31T09:29:45.777Z,81.92
2019-01-31T09:32:32.272Z,81.96
2019-01-31T09:35:04.976Z,81.93
2019-01-31T09:37:31.771Z,81.93
2019-01-31T09:42:33.455Z,82.04
2019-01-31T09:45:01.398Z,82.02
2019-01-31T09:47:50.531Z,81.97
2019-01-31T09:50:36.982Z,81.95
2019-01-31T09:53:08.158Z,81.88
2019-01-31T09:55:54.628Z,81.85
2019-01-31T09:58:34.120Z,81.80
2019-01-31T10:01:10.397Z,81.49
2019-01-31T10:03:41.007Z,81.68
2019-01-31T10:06:27.506Z,81.68
2019-01-31T10:09:15.939Z,81.88
2019-01-31T10:12:02.167Z,81.88
2019-01-31T10:14:48.646Z,81.60
2019-01-31T10:17:35.147Z,81.80
2019-01-31T10:20:02.863Z,81.31
2019-01-31T10:22:49.304Z,81.31
2019-01-31T10:25:16.940Z,81.65
2019-01-31T10:27:45.867Z,81.65
2019-01-31T10:30:15.010Z,81.66
2019-01-31T10:32:43.137Z,81.69
2019-01-31T10:35:29.656Z,81.35
2019-01-31T10:40:50.950Z,81.66
2019-01-31T10:43:37.373Z,82.14
2019-01-31T10:46:08.338Z,82.14
2019-01-31T10:48:35.969Z,81.80
2019-01-31T10:51:03.472Z,81.89
2019-01-31T10:53:49.996Z,81.92
2019-01-31T10:56:36.448Z,81.54
2019-01-31T10:59:23.320Z,81.69
2019-01-31T11:01:50.918Z,81.69
2019-01-31T11:04:22.046Z,81.98
2019-01-31T11:06:51.720Z,81.98
2019-01-31T11:09:38.192Z,81.53
2019-01-31T11:12:08.075Z,81.53
2019-01-31T11:14:35.779Z,81.78
2019-01-31T11:17:03.687Z,81.60
2019-01-31T11:22:09.326Z,81.81
2019-01-31T11:24:55.937Z,81.84
2019-01-31T11:27:42.354Z,81.84
2019-01-31T11:30:22.382Z,82.26
2019-01-31T11:33:10.724Z,82.20
2019-01-31T11:38:23.286Z,82.01
2019-01-31T11:43:42.184Z,81.70
2019-01-31T11:46:09.823Z,81.70
2019-01-31T11:48:37.793Z,82.01
2019-01-31T11:51:24.153Z,81.91
2019-01-31T11:53:54.949Z,81.95
2019-01-31T11:56:24.168Z,81.95
2019-01-31T11:58:52.056Z,81.86
2019-01-31T12:01:23.095Z,81.75
2019-01-31T12:03:50.788Z,81.78
2019-01-31T12:06:18.429Z,81.44
2019-01-31T12:09:04.889Z,81.44
2019-01-31T12:11:32.559Z,80.71
2019-01-31T12:14:00.137Z,80.71
2019-01-31T12:16:46.642Z,80.86
2019-01-31T12:19:33.072Z,81.19
2019-01-31T12:22:19.572Z,81.19
2019-01-31T12:25:06.982Z,80.85
2019-01-31T12:27:53.368Z,80.50
2019-01-31T12:30:22.148Z,80.18
2019-01-31T12:33:08.570Z,80.18
2019-01-31T12:35:55.570Z,80.57
2019-01-31T12:38:42.103Z,80.50
2019-01-31T12:41:28.551Z,80.26
2019-01-31T12:44:15.029Z,80.26
2019-01-31T12:46:42.595Z,80.73
2019-01-31T12:49:29.169Z,81.28
2019-01-31T12:52:12.464Z,81.28
2019-01-31T12:54:26.513Z,80.88
2019-01-31T12:56:54.098Z,80.84
2019-01-31T12:59:21.639Z,80.84
2019-01-31T13:02:08.046Z,80.49
2019-01-31T13:04:35.590Z,80.49
2019-01-31T13:09:59.919Z,80.80
2019-01-31T13:12:28.012Z,80.85
2019-01-31T13:15:14.471Z,81.25
2019-01-31T13:17:42.166Z,81.25
2019-01-31T13:20:28.626Z,81.30
2019-01-31T13:22:59.130Z,81.30
2019-01-31T13:25:26.814Z,80.95
2019-01-31T13:28:14.917Z,80.97
2019-01-31T13:31:01.394Z,81.04
2019-01-31T13:33:50.401Z,81.04
2019-01-31T13:39:27.856Z,81.13
2019-01-31T13:41:55.595Z,81.17
2019-01-31T13:44:43.750Z,81.19
2019-01-31T13:47:30.158Z,80.81
2019-01-31T13:50:19.001Z,81.00
2019-01-31T13:52:46.631Z,81.00
2019-01-31T13:55:33.217Z,80.75
2019-01-31T14:01:07.668Z,81.07
2019-01-31T14:03:54.183Z,81.28
2019-01-31T14:09:13.575Z,80.94
2019-01-31T14:15:05.247Z,81.00
2019-01-31T14:17:55.773Z,81.00
2019-01-31T14:23:18.767Z,81.37
2019-01-31T14:26:05.264Z,81.37
2019-01-31T14:28:54.272Z,81.78
2019-01-31T14:31:33.938Z,81.78
2019-01-31T14:34:10.002Z,81.57
2019-01-31T14:39:42.838Z,81.70
2019-01-31T14:42:10.517Z,81.77
2019-01-31T14:44:43.165Z,81.85
2019-01-31T14:47:12.645Z,81.94
2019-01-31T14:49:40.535Z,82.28
2019-01-31T14:52:11.372Z,82.28
2019-01-31T14:54:40.143Z,82.22
2019-01-31T14:57:09.683Z,82.12
2019-01-31T14:59:40.148Z,82.03
2019-01-31T15:02:09.578Z,82.03
2019-01-31T15:04:37.172Z,81.59
2019-01-31T15:07:05.147Z,81.59
2019-01-31T15:09:35.190Z,82.24
2019-01-31T15:12:02.973Z,82.24
2019-01-31T15:14:32.130Z,81.89
2019-01-31T15:16:59.781Z,81.84
2019-01-31T15:19:27.475Z,81.75
2019-01-31T15:21:55.632Z,81.75
2019-01-31T15:24:27.030Z,82.04
2019-01-31T15:26:54.199Z,82.31
2019-01-31T15:29:23.796Z,82.03
2019-01-31T15:31:51.424Z,82.03
2019-01-31T15:34:19.934Z,82.12
2019-01-31T15:36:47.949Z,82.46
2019-01-31T15:39:17.247Z,82.34
2019-01-31T15:41:45.247Z,82.04
2019-01-31T15:44:42.821Z,82.04
2019-01-31T15:47:19.900Z,81.91
2019-01-31T15:50:06.387Z,82.14
2019-01-31T15:52:34.345Z,82.14
2019-01-31T15:55:20.940Z,82.65
2019-01-31T15:57:50.986Z,82.65
2019-01-31T16:00:37.495Z,82.37
2019-01-31T16:03:05.192Z,82.43
2019-01-31T16:05:51.725Z,82.64
2019-01-31T16:08:38.108Z,82.90
2019-01-31T16:11:24.665Z,82.93
2019-01-31T16:17:18.529Z,82.41
2019-01-31T16:19:45.614Z,83.03
2019-01-31T16:22:32.132Z,83.07
2019-01-31T16:25:20.434Z,82.53
2019-01-31T16:28:09.431Z,82.53
2019-01-31T16:30:37.103Z,82.80
2019-01-31T16:33:26.090Z,82.52
2019-01-31T16:36:15.233Z,82.57
2019-01-31T16:39:01.674Z,82.45
2019-01-31T16:41:48.221Z,82.65
2019-01-31T16:44:34.649Z,83.03
2019-01-31T16:47:02.350Z,82.62
2019-01-31T16:49:48.814Z,82.62
2019-01-31T16:55:25.035Z,83.30
2019-01-31T16:58:01.210Z,83.23
2019-01-31T17:00:47.763Z,83.23
2019-01-31T17:03:34.253Z,82.59
2019-01-31T17:06:22.347Z,83.18
2019-01-31T17:08:51.728Z,83.18
2019-01-31T17:11:40.190Z,82.75
2019-01-31T17:14:07.850Z,82.75
2019-01-31T17:16:36.536Z,83.13
2019-01-31T17:19:06.371Z,83.08
2019-01-31T17:21:36.485Z,83.08
2019-01-31T17:24:05.307Z,82.88
2019-01-31T17:26:33.365Z,82.92
2019-01-31T17:29:01.329Z,82.92
2019-01-31T17:31:32.497Z,83.24
2019-01-31T17:34:00.548Z,83.04
2019-01-31T17:36:28.185Z,83.04
2019-01-31T17:39:01.933Z,83.42
2019-01-31T17:41:31.934Z,83.66
2019-01-31T17:44:03.823Z,83.66
2019-01-31T17:46:43.561Z,83.54
2019-01-31T17:49:13.415Z,83.31
2019-01-31T17:51:47.258Z,83.69
2019-01-31T17:54:16.933Z,83.69
2019-01-31T17:56:46.461Z,83.71
2019-01-31T17:59:15.893Z,83.73
2019-01-31T18:01:43.549Z,83.73
2019-01-31T18:04:11.243Z,83.04
2019-01-31T18:06:40.659Z,83.04
2019-01-31T18:09:08.343Z,83.64
2019-01-31T18:11:35.897Z,83.64
2019-01-31T18:14:10.212Z,83.36
2019-01-31T18:16:38.115Z,83.22
2019-01-31T18:19:07.187Z,82.91
2019-01-31T18:21:36.947Z,82.91
2019-01-31T18:24:04.594Z,83.06
2019-01-31T18:26:34.239Z,83.01
2019-01-31T18:29:02.571Z,82.98
2019-01-31T18:31:30.104Z,83.28
2019-01-31T18:33:58.002Z,83.28
2019-01-31T18:39:16.416Z,83.16
2019-01-31T18:41:46.128Z,82.60
2019-01-31T18:44:14.058Z,82.60
2019-01-31T18:46:42.035Z,82.68
2019-01-31T18:49:20.077Z,82.90
2019-01-31T18:51:47.696Z,82.90
2019-01-31T18:54:21.878Z,83.33
2019-01-31T18:56:50.717Z,82.83
2019-01-31T18:59:18.299Z,82.83
2019-01-31T19:01:46.195Z,83.22
2019-01-31T19:04:13.712Z,83.28
2019-01-31T19:06:41.475Z,83.36
2019-01-31T19:09:09.380Z,83.78
2019-01-31T19:11:37.032Z,83.78
2019-01-31T19:14:04.710Z,83.67
2019-01-31T19:16:34.430Z,83.77
2019-01-31T19:19:04.449Z,83.76
2019-01-31T19:21:32.020Z,84.41
2019-01-31T19:24:05.111Z,84.27
2019-01-31T19:26:35.898Z,83.92
2019-01-31T19:29:03.576Z,83.92
2019-01-31T19:31:31.487Z,84.38
2019-01-31T19:34:02.150Z,84.27
2019-01-31T19:36:31.045Z,84.27
2019-01-31T19:38:59.182Z,84.57
2019-01-31T19:41:28.484Z,84.57
2019-01-31T19:43:57.536Z,84.45
2019-01-31T19:46:29.592Z,84.89
2019-01-31T19:48:57.169Z,84.89
2019-01-31T19:51:24.862Z,84.45
2019-01-31T19:53:56.282Z,84.45
2019-01-31T19:56:28.224Z,84.34
2019-01-31T19:58:55.818Z,84.51
2019-01-31T20:01:23.929Z,84.46
2019-01-31T20:03:54.652Z,84.11
2019-01-31T20:06:22.293Z,84.95
2019-01-31T20:08:50.312Z,84.95
2019-01-31T20:11:24.167Z,84.54
2019-01-31T20:13:51.801Z,84.37
2019-01-31T20:16:28.417Z,84.37
2019-01-31T20:18:49.201Z,85.10
2019-01-31T20:21:17.064Z,84.86
2019-01-31T20:23:48.147Z,84.88
2019-01-31T20:26:15.773Z,85.10
2019-01-31T20:28:43.409Z,84.85
2019-01-31T20:31:29.886Z,84.85
2019-01-31T20:37:04.411Z,84.95
2019-01-31T20:39:33.993Z,85.06
2019-01-31T20:42:22.783Z,85.50
2019-01-31T20:45:09.329Z,85.29
2019-01-31T20:47:55.832Z,85.44
2019-01-31T20:53:16.406Z,85.24
2019-01-31T20:56:00.926Z,85.39
2019-01-31T20:58:35.739Z,85.39
2019-01-31T21:04:00.792Z,85.26
2019-01-31T21:06:40.317Z,85.21
2019-01-31T21:09:19.577Z,85.21
2019-01-31T21:11:47.614Z,85.18
2019-01-31T21:14:40.172Z,84.97
2019-01-31T21:17:07.210Z,85.11
2019-01-31T21:19:41.134Z,85.54
2019-01-31T21:22:10.491Z,85.71
2019-01-31T21:24:40.248Z,85.71
2019-01-31T21:27:09.917Z,85.83
2019-01-31T21:29:39.849Z,85.73
2019-01-31T21:32:10.709Z,85.63
2019-01-31T21:34:40.909Z,85.33
2019-01-31T21:37:19.477Z,85.12
2019-01-31T21:39:53.230Z,85.12
2019-01-31T21:42:21.253Z,85.12
2019-01-31T21:44:48.908Z,85.12
2019-01-31T21:47:16.805Z,85.18
2019-01-31T21:49:50.652Z,84.89
2019-01-31T21:52:59.723Z,84.93
2019-01-31T21:58:30.697Z,84.99
2019-01-31T22:00:37.468Z,84.99
2019-01-31T22:06:22.323Z,84.75
2019-01-31T22:09:17.879Z,84.80
2019-01-31T22:27:22.766Z,84.53
2019-01-31T22:30:33.761Z,85.01
2019-01-31T22:35:33.766Z,84.67
2019-01-31T22:38:01.450Z,84.67
2019-01-31T22:40:48.309Z,85.34
2019-01-31T22:43:16.008Z,85.56
2019-01-31T22:45:45.717Z,85.56
2019-01-31T22:48:32.235Z,85.27
2019-01-31T22:51:18.696Z,84.99
2019-01-31T22:54:05.174Z,84.99
2019-01-31T22:56:44.626Z,84.62
2019-01-31T22:59:21.314Z,84.73
2019-01-31T23:02:07.865Z,84.01
2019-01-31T23:07:09.629Z,84.46
2019-01-31T23:09:56.399Z,84.46
2019-01-31T23:12:42.917Z,84.20
2019-01-31T23:15:29.687Z,83.84
2019-01-31T23:17:57.412Z,83.84
2019-01-31T23:20:44.541Z,83.86
2019-01-31T23:23:32.359Z,83.77
2019-01-31T23:26:19.109Z,83.91
2019-01-31T23:28:47.244Z,83.91
2019-01-31T23:37:12.386Z,83.86
2019-01-31T23:39:59.176Z,84.23
2019-01-31T23:42:27.080Z,83.86
2019-01-31T23:44:54.931Z,83.86
2019-01-31T23:47:48.568Z,84.16
2019-01-31T23:50:11.151Z,84.16
2019-01-31T23:52:57.913Z,83.71
2019-01-31T23:55:44.387Z,84.31
2019-01-31T23:58:12.419Z,84.31
